Princeton, MN

11:26 AM CST on December 12, 2019 (GMT -0600)
Princeton Municipal

Weather History for KPNM - May, 2019

Change the Weather History Date:

Sunday, May 19, 2019

  Actual Average Record
Temperature  
Mean Temperature 40 °F -  
Max Temperature 42 °F 64 °F 84 °F (2012)
Min Temperature 37 °F 41 °F 23 °F (2000)
Degree Days  
Heating Degree Days 26    
Moisture  
Dew Point 38 °F    
Average Humidity 90    
Maximum Humidity 93    
Minimum Humidity 81    
Precipitation  
Precipitation 0.00 in - - ()
Sea Level Pressure  
Sea Level Pressure 29.84 in    
Wind  
Wind Speed 13 mph (NNE)    
Max Wind Speed 25 mph    
Max Gust Speed 32 mph    
Visibility 10 miles    
Events Rain    
Averages and records for this station are not official NWS values.
T = Trace of Precipitation, MM = Missing Value Source: NWS Daily Summary

Daily Weather History Graph

Daily Weather History Graph

Search for Another Location

Airport or City:

Astronomy

May. 19, 2019 Rise Set
Actual Time 5:39 AM CDT 8:42 PM CDT
Civil Twilight 5:04 AM CDT 9:18 PM CDT
Nautical Twilight 4:19 AM CDT 10:03 PM CDT
Astronomical Twilight 3:24 AM CDT 10:58 PM CDT
Moon 9:44 PM CDT (5/19) 6:27 AM CDT (5/19)
Length of Visible Light 16h 14m
Length of Day
15h 03m
Full, 99% of the Moon is Illuminated
May 19
Full
May 26
Last Quarter
Jun 3
New
Jun 10
First Quarter
Jun 17
Full

Hourly Weather History & Observations

Time (CDT) Temp. Windchill Dew Point Humidity Pressure Visibility Wind Dir Wind Speed Gust Speed Precip Events Conditions
12:15 AM 42.8 °F 36.2 °F 41.0 °F 93% 29.79 in 10.0 mi NE 12.7 mph 19.6 mph N/A Rain Rain
12:16 AM 42.8 °F 36.6 °F 41.0 °F 93% 29.79 in 10.0 mi NE 11.5 mph 19.6 mph N/A Rain Rain
12:35 AM 42.8 °F 37.5 °F 41.0 °F 93% 29.79 in 10.0 mi NE 9.2 mph 19.6 mph N/A Rain Rain
12:55 AM 42.8 °F 37.0 °F 41.0 °F 93% 29.78 in 10.0 mi NE 10.4 mph 17.3 mph N/A Rain Rain
1:15 AM 42.8 °F 37.0 °F 41.0 °F 93% 29.78 in 10.0 mi NE 10.4 mph 19.6 mph N/A Rain Rain
1:16 AM 42.8 °F 37.0 °F 41.0 °F 93% 29.78 in 10.0 mi NE 10.4 mph 19.6 mph N/A Rain Rain
1:35 AM 42.8 °F 35.8 °F 41.0 °F 93% 29.76 in 10.0 mi NE 13.8 mph 20.7 mph N/A Rain Rain
1:36 AM 42.8 °F 35.8 °F 41.0 °F 93% 29.76 in 10.0 mi NE 13.8 mph 20.7 mph N/A Rain Rain
1:55 AM 42.8 °F 35.1 °F 41.0 °F 93% 29.75 in 10.0 mi NE 16.1 mph 21.9 mph N/A Rain Light Rain
2:15 AM 42.8 °F 36.2 °F 41.0 °F 93% 29.74 in 10.0 mi NE 12.7 mph 23.0 mph N/A Rain Rain
2:16 AM 42.8 °F 35.8 °F 41.0 °F 93% 29.73 in 10.0 mi NE 13.8 mph 23.0 mph N/A Rain Rain
2:35 AM 42.8 °F 37.5 °F 41.0 °F 93% 29.72 in 10.0 mi NE 9.2 mph 23.0 mph N/A Rain Light Rain
2:55 AM 42.8 °F 35.8 °F 41.0 °F 93% 29.72 in 10.0 mi NE 13.8 mph 21.9 mph N/A Rain Light Rain
3:15 AM 42.8 °F 36.2 °F 41.0 °F 93% 29.72 in 10.0 mi NE 12.7 mph 21.9 mph N/A Rain Light Rain
3:16 AM 42.8 °F 35.8 °F 41.0 °F 93% 29.72 in 10.0 mi NE 13.8 mph 21.9 mph N/A   Light Drizzle
3:35 AM 42.8 °F 37.0 °F 41.0 °F 93% 29.71 in 10.0 mi NE 10.4 mph 26.5 mph N/A Rain Light Rain
3:36 AM 42.8 °F 36.6 °F 41.0 °F 93% 29.71 in 10.0 mi NE 11.5 mph 26.5 mph N/A Rain Light Rain
3:55 AM 42.8 °F 36.6 °F 41.0 °F 93% 29.71 in 10.0 mi NE 11.5 mph 17.3 mph N/A   Light Drizzle
3:56 AM 42.8 °F 36.2 °F 41.0 °F 93% 29.72 in 10.0 mi NNE 12.7 mph 18.4 mph N/A   Light Drizzle
4:15 AM 42.8 °F 36.6 °F 41.0 °F 93% 29.72 in 10.0 mi NE 11.5 mph 18.4 mph N/A   Light Drizzle
4:16 AM 42.8 °F 36.6 °F 41.0 °F 93% 29.72 in 10.0 mi NNE 11.5 mph 18.4 mph N/A   Light Drizzle
4:35 AM 42.8 °F 37.0 °F 41.0 °F 93% 29.73 in 10.0 mi NNE 10.4 mph 18.4 mph N/A   Overcast
4:55 AM 42.8 °F 37.0 °F 41.0 °F 93% 29.74 in 10.0 mi NNE 10.4 mph 20.7 mph N/A Rain Light Rain
4:56 AM 42.8 °F 37.0 °F 41.0 °F 93% 29.74 in 10.0 mi NE 10.4 mph 16.1 mph N/A Rain Light Rain
5:15 AM 42.8 °F 38.0 °F 41.0 °F 93% 29.74 in 7.0 mi NE 8.1 mph 16.1 mph N/A Rain Light Rain
5:16 AM 42.8 °F 38.0 °F 41.0 °F 93% 29.74 in 10.0 mi NE 8.1 mph - N/A Rain Light Rain
5:35 AM 42.8 °F 37.0 °F 41.0 °F 93% 29.74 in 7.0 mi NNE 10.4 mph 19.6 mph N/A Rain Rain
5:55 AM 42.8 °F 37.0 °F 41.0 °F 93% 29.72 in 7.0 mi NNE 10.4 mph 17.3 mph N/A Rain Rain
5:56 AM 42.8 °F 36.6 °F 41.0 °F 93% 29.72 in 7.0 mi NNE 11.5 mph 17.3 mph N/A Rain Rain
6:15 AM 42.8 °F 35.8 °F 41.0 °F 93% 29.72 in 7.0 mi NNE 13.8 mph 20.7 mph N/A   Drizzle
6:35 AM 42.8 °F 35.4 °F 41.0 °F 93% 29.72 in 10.0 mi NNE 15.0 mph 21.9 mph N/A Rain Light Rain
6:55 AM 42.8 °F 35.4 °F 41.0 °F 93% 29.71 in 10.0 mi NNE 15.0 mph 25.3 mph N/A Rain Rain
6:56 AM 42.8 °F 35.4 °F 41.0 °F 93% 29.71 in 10.0 mi NNE 15.0 mph 25.3 mph N/A Rain Rain
7:15 AM 42.8 °F 36.6 °F 41.0 °F 93% 29.72 in 10.0 mi NNE 11.5 mph 21.9 mph N/A Rain Light Rain
7:35 AM 42.8 °F 35.8 °F 39.2 °F 87% 29.72 in 10.0 mi NNE 13.8 mph 25.3 mph N/A Rain Rain
7:55 AM 42.8 °F 35.4 °F 39.2 °F 87% 29.73 in 10.0 mi NNE 15.0 mph 24.2 mph N/A Rain Light Rain
7:56 AM 42.8 °F 36.2 °F 39.2 °F 87% 29.73 in 10.0 mi NE 12.7 mph 24.2 mph N/A Rain Light Rain
8:15 AM 42.8 °F 35.8 °F 39.2 °F 87% 29.74 in 10.0 mi NNE 13.8 mph 19.6 mph N/A Rain Light Rain
8:35 AM 42.8 °F 35.8 °F 39.2 °F 87% 29.75 in 10.0 mi NNE 13.8 mph 19.6 mph N/A Rain Rain
8:36 AM 42.8 °F 35.8 °F 39.2 °F 87% 29.75 in 10.0 mi NNE 13.8 mph 19.6 mph N/A Rain Light Rain
8:55 AM 42.8 °F 35.1 °F 39.2 °F 87% 29.74 in 10.0 mi North 16.1 mph 20.7 mph N/A Rain Light Rain
9:15 AM 42.8 °F 37.0 °F 39.2 °F 87% 29.75 in 10.0 mi North 10.4 mph 21.9 mph N/A Rain Light Rain
9:35 AM 42.8 °F 35.8 °F 39.2 °F 87% 29.76 in 10.0 mi North 13.8 mph 20.7 mph N/A Rain Light Rain
9:36 AM 42.8 °F 35.8 °F 39.2 °F 87% 29.76 in 10.0 mi NNE 13.8 mph 20.7 mph N/A Rain Light Rain
9:55 AM 41.0 °F 31.9 °F 39.2 °F 93% 29.77 in 10.0 mi North 19.6 mph 24.2 mph N/A Rain Light Rain
9:56 AM 41.0 °F 31.9 °F 39.2 °F 93% 29.77 in 10.0 mi NNE 19.6 mph 27.6 mph N/A Rain Light Rain
10:15 AM 41.0 °F 32.8 °F 39.2 °F 93% 29.77 in 10.0 mi NNE 16.1 mph 23.0 mph N/A Rain Light Rain
10:35 AM 39.2 °F 30.2 °F 37.4 °F 93% 29.78 in 10.0 mi North 17.3 mph 26.5 mph N/A Rain Light Rain
10:36 AM 39.2 °F 30.2 °F 37.4 °F 93% 29.78 in 10.0 mi NNE 17.3 mph 26.5 mph N/A Rain Rain
10:55 AM 39.2 °F 30.8 °F 37.4 °F 93% 29.78 in 10.0 mi North 15.0 mph 27.6 mph N/A Rain Light Rain
10:56 AM 39.2 °F 30.2 °F 37.4 °F 93% 29.79 in 10.0 mi North 17.3 mph 27.6 mph N/A Rain Light Rain
11:15 AM 39.2 °F 29.6 °F 35.6 °F 87% 29.79 in 10.0 mi North 19.6 mph 29.9 mph N/A Rain Light Rain
11:16 AM 39.2 °F 29.3 °F 35.6 °F 87% 29.79 in 10.0 mi NNE 20.7 mph 29.9 mph N/A Rain Light Rain
11:35 AM 37.4 °F 26.9 °F 35.6 °F 93% 29.80 in 10.0 mi North 20.7 mph 26.5 mph N/A Rain Light Rain
11:55 AM 37.4 °F 27.8 °F 35.6 °F 93% 29.81 in 10.0 mi North 17.3 mph 29.9 mph N/A Rain Light Rain
12:15 PM 37.4 °F 28.2 °F 35.6 °F 93% 29.82 in 10.0 mi North 16.1 mph 25.3 mph N/A Rain Light Rain
12:16 PM 37.4 °F 27.5 °F 35.6 °F 93% 29.82 in 10.0 mi North 18.4 mph 25.3 mph N/A Rain Light Rain
12:35 PM 37.4 °F 28.5 °F 35.6 °F 93% 29.82 in 10.0 mi North 15.0 mph 26.5 mph N/A Rain Light Rain
12:36 PM 37.4 °F 28.2 °F 35.6 °F 93% 29.82 in 10.0 mi North 16.1 mph 26.5 mph N/A Rain Rain
12:55 PM 39.2 °F 31.6 °F 35.6 °F 87% 29.83 in 7.0 mi North 12.7 mph 25.3 mph N/A   Light Drizzle
1:15 PM 39.2 °F 30.8 °F 37.4 °F 93% 29.83 in 10.0 mi North 15.0 mph 28.8 mph N/A   Light Drizzle
1:16 PM 39.2 °F 30.2 °F 37.4 °F 93% 29.84 in 10.0 mi North 17.3 mph 28.8 mph N/A   Light Drizzle
1:35 PM 39.2 °F 29.6 °F 37.4 °F 93% 29.83 in 10.0 mi North 19.6 mph 28.8 mph N/A Rain Light Rain
1:55 PM 39.2 °F 30.5 °F 37.4 °F 93% 29.84 in 10.0 mi North 16.1 mph 27.6 mph N/A Rain Light Rain
1:56 PM 39.2 °F 30.2 °F 37.4 °F 93% 29.84 in 10.0 mi North 17.3 mph 27.6 mph N/A   Light Drizzle
2:15 PM 39.2 °F 28.7 °F 35.6 °F 87% 29.85 in 10.0 mi North 23.0 mph 32.2 mph N/A   Light Drizzle
2:16 PM 39.2 °F 28.3 °F 35.6 °F 87% 29.85 in 10.0 mi North 25.3 mph 32.2 mph N/A   Light Drizzle
2:35 PM 39.2 °F 29.8 °F 35.6 °F 87% 29.86 in 10.0 mi North 18.4 mph 27.6 mph N/A   Light Drizzle
2:36 PM 39.2 °F 30.5 °F 35.6 °F 87% 29.86 in 10.0 mi North 16.1 mph 27.6 mph N/A   Overcast
2:55 PM 39.2 °F 30.8 °F 35.6 °F 87% 29.87 in 10.0 mi North 15.0 mph 27.6 mph N/A   Light Drizzle
3:15 PM 39.2 °F 29.6 °F 35.6 °F 87% 29.87 in 10.0 mi North 19.6 mph 28.8 mph N/A   Light Drizzle
3:16 PM 39.2 °F 29.3 °F 35.6 °F 87% 29.87 in 10.0 mi North 20.7 mph 28.8 mph N/A   Light Drizzle
3:35 PM 39.2 °F 30.5 °F 35.6 °F 87% 29.87 in 10.0 mi North 16.1 mph 28.8 mph N/A   Light Drizzle
3:36 PM 39.2 °F 29.8 °F 35.6 °F 87% 29.87 in 10.0 mi North 18.4 mph 26.5 mph N/A   Light Drizzle
3:55 PM 39.2 °F 29.3 °F 35.6 °F 87% 29.88 in 10.0 mi North 20.7 mph 28.8 mph N/A   Light Drizzle
4:15 PM 39.2 °F 30.2 °F 35.6 °F 87% 29.89 in 10.0 mi North 17.3 mph 29.9 mph N/A   Overcast
4:16 PM 39.2 °F 30.5 °F 35.6 °F 87% 29.89 in 10.0 mi North 16.1 mph 28.8 mph N/A   Overcast
4:35 PM 39.2 °F 29.0 °F 35.6 °F 87% 29.90 in 10.0 mi North 21.9 mph 31.1 mph N/A   Overcast
4:36 PM 39.2 °F 28.7 °F 35.6 °F 87% 29.90 in 10.0 mi North 23.0 mph 31.1 mph N/A   Overcast
4:55 PM 41.0 °F 31.4 °F 37.4 °F 87% 29.90 in 10.0 mi North 21.9 mph 29.9 mph N/A   Overcast
5:15 PM 41.0 °F 33.5 °F 35.6 °F 81% 29.91 in 10.0 mi North 13.8 mph 24.2 mph N/A   Mostly Cloudy
5:16 PM 41.0 °F 33.5 °F 35.6 °F 81% 29.91 in 10.0 mi North 13.8 mph 24.2 mph N/A   Mostly Cloudy
5:35 PM 41.0 °F 33.5 °F 35.6 °F 81% 29.92 in 10.0 mi North 13.8 mph 21.9 mph N/A   Overcast
5:55 PM 39.2 °F 31.6 °F 35.6 °F 87% 29.93 in 10.0 mi North 12.7 mph 23.0 mph N/A   Overcast
5:56 PM 39.2 °F 31.6 °F 35.6 °F 87% 29.94 in 10.0 mi North 12.7 mph 23.0 mph N/A   Overcast
6:15 PM 39.2 °F 32.5 °F 35.6 °F 87% 29.95 in 10.0 mi North 10.4 mph 21.9 mph N/A   Light Drizzle
6:16 PM 39.2 °F 32.5 °F 35.6 °F 87% 29.95 in 10.0 mi North 10.4 mph 21.9 mph N/A   Light Drizzle
6:35 PM 39.2 °F 33.0 °F 35.6 °F 87% 29.95 in 10.0 mi North 9.2 mph 21.9 mph N/A   Light Drizzle
6:36 PM 39.2 °F 33.0 °F 35.6 °F 87% 29.95 in 10.0 mi North 9.2 mph 21.9 mph N/A   Light Drizzle
6:55 PM 39.2 °F 32.5 °F 35.6 °F 87% 29.96 in 10.0 mi North 10.4 mph 17.3 mph N/A   Drizzle
6:56 PM 39.2 °F 31.6 °F 35.6 °F 87% 29.96 in 10.0 mi North 12.7 mph 17.3 mph N/A   Drizzle
7:15 PM 39.2 °F 32.5 °F 35.6 °F 87% 29.97 in 10.0 mi North 10.4 mph 19.6 mph N/A Rain Light Rain
7:35 PM 39.2 °F 33.0 °F 35.6 °F 87% 29.98 in 10.0 mi NNW 9.2 mph - N/A Rain Rain
7:55 PM 39.2 °F 31.6 °F 35.6 °F 87% 29.99 in 10.0 mi North 12.7 mph 17.3 mph N/A Rain Light Rain
7:56 PM 39.2 °F 32.0 °F 35.6 °F 87% 29.99 in 10.0 mi North 11.5 mph 17.3 mph N/A Rain Light Rain
8:15 PM 39.2 °F 32.5 °F 35.6 °F 87% 30.00 in 10.0 mi North 10.4 mph - N/A   Drizzle
8:16 PM 39.2 °F 31.6 °F 35.6 °F 87% 30.00 in 10.0 mi North 12.7 mph - N/A   Drizzle
8:35 PM 39.2 °F 33.6 °F 35.6 °F 87% 30.01 in 10.0 mi North 8.1 mph - N/A   Drizzle
8:55 PM 39.2 °F 34.2 °F 35.6 °F 87% 30.01 in 10.0 mi North 6.9 mph - N/A   Drizzle
9:15 PM 39.2 °F 35.9 °F 35.6 °F 87% 30.00 in 10.0 mi NE 4.6 mph - N/A   Light Drizzle
9:35 PM 39.2 °F 37.0 °F 35.6 °F 87% 30.00 in 10.0 mi NNE 3.5 mph - N/A   Overcast
9:55 PM 39.2 °F 37.0 °F 35.6 °F 87% 30.01 in 10.0 mi NNW 3.5 mph - N/A   Mostly Cloudy
9:56 PM 39.2 °F 37.0 °F 35.6 °F 87% 30.01 in 10.0 mi North 3.5 mph - N/A   Mostly Cloudy
10:15 PM 39.2 °F - 35.6 °F 87% 30.01 in 10.0 mi Calm Calm - N/A   Scattered Clouds
10:35 PM 39.2 °F - 35.6 °F 87% 30.01 in 10.0 mi Calm Calm - N/A   Clear
10:55 PM 39.2 °F 37.0 °F 35.6 °F 87% 30.02 in 10.0 mi WNW 3.5 mph - N/A   Clear
10:56 PM 39.2 °F 37.0 °F 35.6 °F 87% 30.02 in 10.0 mi WNW 3.5 mph - N/A   Clear
11:15 PM 39.2 °F - 35.6 °F 87% 30.02 in 10.0 mi Calm Calm - N/A   Clear
11:16 PM 39.2 °F - 35.6 °F 87% 30.02 in 10.0 mi Calm Calm - N/A   Clear
11:35 PM 39.2 °F - 35.6 °F 87% 30.03 in 10.0 mi Calm Calm - N/A   Clear
11:55 PM 37.4 °F - 35.6 °F 93% 30.04 in 10.0 mi Calm Calm - N/A   Clear
11:56 PM 37.4 °F - 35.6 °F 93% 30.04 in 10.0 mi Calm Calm - N/A   Clear